createdAt,value
2023-03-05T02:04:09.100Z,93.42
2023-03-05T02:06:36.416Z,94.64
2023-03-05T02:09:03.408Z,94.22
2023-03-05T02:11:30.474Z,94.25
2023-03-05T02:13:58.669Z,93.71
2023-03-05T02:16:25.616Z,93.14
2023-03-05T02:18:52.496Z,93.42
2023-03-05T02:21:37.279Z,92.67
2023-03-05T02:24:04.399Z,91.47
2023-03-05T02:26:31.250Z,92.43
2023-03-05T02:29:01.160Z,93.49
2023-03-05T02:31:28.333Z,92.38
2023-03-05T02:33:56.441Z,92.59
2023-03-05T02:36:24.362Z,92.97
2023-03-05T02:38:53.193Z,93.07
2023-03-05T02:41:20.113Z,93.35
2023-03-05T02:43:46.936Z,93.15
2023-03-05T02:46:13.829Z,93.70
2023-03-05T02:48:40.885Z,93.63
2023-03-05T02:51:08.687Z,92.98
2023-03-05T02:53:36.098Z,92.97
2023-03-05T02:56:03.741Z,93.28
2023-03-05T02:58:30.594Z,93.66
2023-03-05T03:00:57.510Z,93.50
2023-03-05T03:03:24.467Z,93.15
2023-03-05T03:05:51.376Z,93.02
2023-03-05T03:08:18.344Z,93.15
2023-03-05T03:10:45.411Z,91.98
2023-03-05T03:13:12.194Z,92.32
2023-03-05T03:15:40.571Z,92.54
2023-03-05T03:18:07.385Z,91.99
2023-03-05T03:20:35.063Z,91.61
2023-03-05T03:23:09.218Z,91.25
2023-03-05T03:25:36.106Z,91.04
2023-03-05T03:28:03.191Z,91.38
2023-03-05T03:30:30.102Z,90.92
2023-03-05T03:32:56.894Z,90.77
2023-03-05T03:35:23.747Z,90.39
2023-03-05T03:37:53.397Z,89.34
2023-03-05T03:40:20.517Z,89.46
2023-03-05T03:42:47.506Z,88.76
2023-03-05T03:45:14.613Z,89.69
2023-03-05T03:47:41.441Z,89.71
2023-03-05T03:50:08.917Z,89.42
2023-03-05T03:52:35.778Z,89.03
2023-03-05T03:55:02.659Z,89.86
2023-03-05T03:57:33.726Z,89.02
2023-03-05T04:00:00.827Z,89.89
2023-03-05T04:02:27.989Z,90.22
2023-03-05T04:04:54.954Z,89.78
2023-03-05T04:07:22.481Z,89.33
2023-03-05T04:09:49.690Z,88.94
2023-03-05T04:12:18.477Z,88.31
2023-03-05T04:14:47.152Z,89.53
2023-03-05T04:17:14.654Z,89.57
2023-03-05T04:19:42.333Z,89.69
2023-03-05T04:22:15.129Z,90.06
2023-03-05T04:24:42.241Z,88.55
2023-03-05T04:27:09.410Z,89.36
2023-03-05T04:29:37.027Z,88.71
2023-03-05T04:32:04.260Z,87.53
2023-03-05T04:34:31.264Z,86.55
2023-03-05T04:36:58.174Z,86.32
2023-03-05T04:39:25.395Z,87.06
2023-03-05T04:41:52.201Z,87.17
2023-03-05T04:44:19.403Z,86.95
2023-03-05T04:46:46.239Z,86.97
2023-03-05T04:49:13.269Z,85.78
2023-03-05T04:51:40.160Z,86.96
2023-03-05T04:54:07.001Z,86.15
2023-03-05T04:56:34.490Z,86.49
2023-03-05T04:59:01.351Z,87.59
2023-03-05T05:01:28.174Z,88.41
2023-03-05T05:03:55.064Z,87.58
2023-03-05T05:06:21.940Z,87.68
2023-03-05T05:08:48.966Z,87.18
2023-03-05T05:11:15.805Z,88.12
2023-03-05T05:13:42.810Z,86.33
2023-03-05T05:16:10.222Z,85.52
2023-03-05T05:18:37.205Z,86.58
2023-03-05T05:21:12.008Z,83.88
2023-03-05T05:23:39.494Z,85.65
2023-03-05T05:26:08.506Z,87.24
2023-03-05T05:28:36.108Z,87.76
2023-03-05T05:31:08.028Z,85.74
2023-03-05T05:33:35.005Z,87.15
2023-03-05T05:36:07.406Z,86.76
2023-03-05T05:38:34.305Z,84.63
2023-03-05T05:41:15.270Z,84.14
2023-03-05T05:43:42.382Z,84.26
2023-03-05T05:46:13.215Z,80.47
2023-03-05T05:48:40.627Z,81.42
2023-03-05T05:51:12.508Z,80.67
2023-03-05T05:53:39.661Z,78.17
2023-03-05T05:56:07.988Z,76.50
2023-03-05T05:58:36.103Z,75.76
2023-03-05T06:01:03.207Z,75.73
2023-03-05T06:03:30.151Z,73.77
2023-03-05T06:05:57.033Z,74.62
2023-03-05T06:08:23.825Z,71.49
2023-03-05T06:10:56.679Z,70.49
2023-03-05T06:13:23.442Z,70.80
2023-03-05T06:16:01.878Z,70.98
2023-03-05T06:18:28.934Z,68.01
2023-03-05T06:21:01.329Z,68.25
2023-03-05T06:23:28.557Z,63.60
2023-03-05T06:25:58.830Z,60.21
2023-03-05T06:28:26.085Z,59.00
2023-03-05T06:31:01.291Z,60.64
2023-03-05T06:33:28.117Z,57.80
2023-03-05T06:35:55.230Z,53.34
2023-03-05T06:38:22.267Z,50.85
2023-03-05T06:40:49.114Z,52.05
2023-03-05T06:43:15.966Z,50.68
2023-03-05T06:45:42.973Z,49.93
2023-03-05T06:48:09.848Z,47.26
2023-03-05T06:50:37.675Z,46.80
2023-03-05T06:53:04.563Z,46.84
2023-03-05T06:55:31.535Z,47.88
2023-03-05T06:57:58.318Z,47.90
2023-03-05T07:00:29.804Z,47.87
2023-03-05T07:02:56.622Z,47.03
2023-03-05T07:05:23.450Z,45.91
2023-03-05T07:07:50.366Z,44.26
2023-03-05T07:10:17.274Z,43.69
2023-03-05T07:12:44.078Z,43.01
2023-03-05T07:15:11.360Z,44.95
2023-03-05T07:17:38.182Z,45.31
2023-03-05T07:20:05.631Z,44.65
2023-03-05T07:22:32.516Z,45.64
2023-03-05T07:24:59.301Z,45.95
2023-03-05T07:27:26.271Z,45.07
2023-03-05T07:29:53.136Z,45.51
2023-03-05T07:32:25.332Z,46.66
2023-03-05T07:34:52.187Z,44.40
2023-03-05T07:37:19.058Z,41.65
2023-03-05T07:39:47.251Z,41.54
2023-03-05T07:42:14.275Z,39.97
2023-03-05T07:44:41.217Z,41.37
2023-03-05T07:47:08.027Z,39.94
2023-03-05T07:49:35.468Z,39.07
2023-03-05T07:52:02.300Z,39.59
2023-03-05T07:54:29.105Z,37.96
2023-03-05T07:56:56.118Z,38.61
2023-03-05T07:59:23.102Z,38.71
2023-03-05T08:01:49.999Z,39.51
2023-03-05T08:04:17.002Z,38.65
2023-03-05T08:06:43.925Z,37.52
2023-03-05T08:09:10.720Z,37.35
2023-03-05T08:11:37.493Z,37.48
2023-03-05T08:14:04.779Z,37.97
2023-03-05T08:16:31.654Z,37.25
2023-03-05T08:18:59.168Z,37.66
2023-03-05T08:21:33.915Z,36.95
2023-03-05T08:24:06.190Z,36.71
2023-03-05T08:26:35.736Z,36.79
2023-03-05T08:29:03.449Z,38.06
2023-03-05T08:31:31.681Z,37.43
2023-03-05T08:34:00.170Z,37.78
2023-03-05T08:36:27.881Z,37.30
2023-03-05T08:38:57.229Z,36.58
2023-03-05T08:41:24.117Z,38.63
2023-03-05T08:43:51.196Z,37.53
2023-03-05T08:46:18.365Z,36.97
2023-03-05T08:48:45.236Z,37.35
2023-03-05T08:51:15.791Z,36.55
2023-03-05T08:53:44.273Z,39.06
2023-03-05T08:56:12.519Z,38.64
2023-03-05T08:58:39.793Z,38.03
2023-03-05T09:01:07.346Z,38.63
2023-03-05T09:03:34.423Z,36.65
2023-03-05T09:06:02.944Z,36.44
2023-03-05T09:08:30.074Z,37.53
2023-03-05T09:10:57.609Z,37.46
2023-03-05T09:13:24.813Z,36.02
2023-03-05T09:15:56.698Z,36.00
2023-03-05T09:18:24.198Z,37.48
2023-03-05T09:20:51.391Z,34.84
2023-03-05T09:23:18.427Z,35.80
2023-03-05T09:25:45.368Z,35.23
2023-03-05T09:28:12.187Z,36.80
2023-03-05T09:30:39.704Z,36.31
2023-03-05T09:33:06.747Z,36.69
2023-03-05T09:35:37.922Z,36.59
2023-03-05T09:38:05.356Z,37.59
2023-03-05T09:40:47.044Z,38.96
2023-03-05T09:43:30.196Z,39.32
2023-03-05T09:46:16.321Z,39.99
2023-03-05T09:48:52.675Z,41.16
2023-03-05T09:51:29.200Z,39.51
2023-03-05T09:54:05.476Z,41.47
2023-03-05T09:56:39.960Z,40.90
2023-03-05T09:59:15.946Z,40.15
2023-03-05T10:01:45.185Z,41.83
2023-03-05T10:04:18.712Z,41.57
2023-03-05T10:07:12.842Z,41.06
2023-03-05T10:09:54.922Z,40.45
2023-03-05T10:12:25.791Z,41.96
2023-03-05T10:14:53.117Z,39.92
2023-03-05T10:17:47.310Z,41.30
2023-03-05T10:20:38.416Z,41.08
2023-03-05T10:23:08.462Z,39.53
2023-03-05T10:25:54.999Z,40.76
2023-03-05T10:28:29.924Z,40.15
2023-03-05T10:31:35.522Z,39.86
2023-03-05T10:34:21.924Z,41.02
2023-03-05T10:37:37.013Z,40.38
2023-03-05T10:40:45.732Z,39.28
2023-03-05T10:43:25.258Z,40.22
2023-03-05T10:45:57.370Z,40.09
2023-03-05T10:48:45.371Z,38.89
2023-03-05T10:51:21.318Z,38.86
2023-03-05T10:53:55.369Z,39.91
2023-03-05T10:56:24.089Z,39.28
2023-03-05T10:58:53.004Z,39.00
2023-03-05T11:01:22.816Z,41.30
2023-03-05T11:03:59.339Z,41.33
2023-03-05T11:06:56.552Z,41.18
2023-03-05T11:09:32.936Z,40.44
2023-03-05T11:12:22.071Z,41.31
2023-03-05T11:15:26.916Z,40.37
2023-03-05T11:18:14.478Z,41.30
2023-03-05T11:20:41.941Z,39.70
2023-03-05T11:23:16.304Z,41.81
2023-03-05T11:26:13.485Z,40.21
2023-03-05T11:28:55.540Z,40.91
2023-03-05T11:31:28.338Z,42.13
2023-03-05T11:33:57.426Z,40.54
2023-03-05T11:36:42.260Z,40.38
2023-03-05T11:39:15.777Z,40.85
2023-03-05T11:42:01.761Z,40.12
2023-03-05T11:44:50.484Z,41.68
2023-03-05T11:47:26.598Z,39.87
2023-03-05T11:50:01.244Z,41.47
2023-03-05T11:52:40.013Z,42.52
2023-03-05T11:55:26.065Z,38.79
2023-03-05T11:58:11.816Z,39.07
2023-03-05T12:00:43.302Z,40.36
2023-03-05T12:03:20.949Z,41.57
2023-03-05T12:05:54.631Z,39.86
2023-03-05T12:08:30.400Z,40.55
2023-03-05T12:11:00.470Z,39.73
2023-03-05T12:13:44.684Z,41.80
2023-03-05T12:16:24.515Z,40.33
2023-03-05T12:19:11.362Z,40.43
2023-03-05T12:21:43.320Z,42.98
2023-03-05T12:24:28.010Z,39.55
2023-03-05T12:27:04.498Z,39.26
2023-03-05T12:29:53.122Z,38.47
2023-03-05T12:32:23.174Z,38.25
2023-03-05T12:34:57.850Z,39.57
2023-03-05T12:37:24.903Z,40.50
2023-03-05T12:39:59.249Z,40.92
2023-03-05T12:42:29.438Z,40.20
2023-03-05T12:45:17.212Z,39.12
2023-03-05T12:47:48.875Z,40.37
2023-03-05T12:50:28.030Z,48.78
2023-03-05T12:53:07.254Z,41.91
2023-03-05T12:55:46.124Z,42.46
2023-03-05T12:58:40.823Z,41.68
2023-03-05T13:01:26.359Z,43.04
2023-03-05T13:04:10.967Z,43.34
2023-03-05T13:06:39.709Z,42.94
2023-03-05T13:09:18.437Z,40.70
2023-03-05T13:11:50.016Z,41.16
2023-03-05T13:14:37.116Z,45.11
2023-03-05T13:17:23.712Z,41.77
2023-03-05T13:19:50.715Z,42.16
2023-03-05T13:22:17.508Z,40.78
2023-03-05T13:24:44.360Z,40.45
2023-03-05T13:27:30.048Z,42.29
2023-03-05T13:29:57.209Z,40.05
2023-03-05T13:32:28.354Z,39.34
2023-03-05T13:34:58.419Z,40.27
2023-03-05T13:37:34.834Z,41.48
2023-03-05T13:40:29.384Z,39.83
2023-03-05T13:43:09.925Z,40.00
2023-03-05T13:45:37.027Z,40.67
2023-03-05T13:48:07.107Z,42.53
2023-03-05T13:50:39.959Z,41.48
2023-03-05T13:53:15.870Z,42.32
2023-03-05T13:55:42.847Z,41.35
2023-03-05T13:58:40.576Z,41.19
2023-03-05T14:01:29.898Z,41.14
2023-03-05T14:04:07.973Z,43.43
2023-03-05T14:06:41.679Z,43.53
2023-03-05T14:09:20.324Z,40.52
2023-03-05T14:11:59.302Z,41.45
2023-03-05T14:14:27.518Z,47.55
2023-03-05T14:16:54.826Z,43.45
2023-03-05T14:19:36.596Z,44.10
2023-03-05T14:22:04.999Z,56.92
2023-03-05T14:24:33.483Z,43.01
2023-03-05T14:27:21.506Z,42.80
2023-03-05T14:29:48.381Z,42.92
2023-03-05T14:32:38.859Z,43.18
2023-03-05T14:35:06.956Z,43.11
2023-03-05T14:37:42.434Z,42.85
2023-03-05T14:40:12.363Z,43.16
2023-03-05T14:42:42.132Z,45.67
2023-03-05T14:45:17.860Z,45.96
2023-03-05T14:47:45.081Z,45.36
2023-03-05T14:50:21.917Z,44.80
2023-03-05T14:52:51.457Z,47.49
2023-03-05T14:55:21.117Z,46.04
2023-03-05T14:57:49.140Z,45.19
2023-03-05T15:00:24.749Z,45.69
2023-03-05T15:02:52.018Z,45.33
2023-03-05T15:05:19.520Z,45.55
2023-03-05T15:07:47.714Z,45.62
2023-03-05T15:10:17.887Z,47.17
2023-03-05T15:12:45.292Z,46.20
2023-03-05T15:15:15.019Z,46.24
2023-03-05T15:17:48.602Z,46.73
2023-03-05T15:20:27.994Z,47.36
2023-03-05T15:22:55.704Z,47.77
2023-03-05T15:25:25.704Z,65.31
2023-03-05T15:27:53.079Z,50.02
2023-03-05T15:30:32.287Z,48.36
2023-03-05T15:33:02.637Z,47.74
2023-03-05T15:35:29.822Z,48.49
2023-03-05T15:37:58.177Z,48.49
2023-03-05T15:40:27.802Z,49.16
2023-03-05T15:42:58.914Z,48.37
2023-03-05T15:45:26.221Z,49.59
2023-03-05T15:47:53.690Z,50.60
2023-03-05T15:50:21.794Z,49.70
2023-03-05T15:52:49.822Z,49.12
2023-03-05T15:55:18.572Z,50.07
2023-03-05T15:57:48.125Z,50.67
2023-03-05T16:00:17.341Z,50.39
2023-03-05T16:02:44.224Z,49.96
2023-03-05T16:05:11.358Z,70.63
2023-03-05T16:07:42.426Z,51.51
2023-03-05T16:10:17.769Z,51.42
2023-03-05T16:12:47.138Z,53.65
2023-03-05T16:15:17.315Z,51.56
2023-03-05T16:17:47.710Z,51.39
2023-03-05T16:20:15.909Z,52.69
2023-03-05T16:22:42.858Z,50.39
2023-03-05T16:25:10.190Z,51.27
2023-03-05T16:27:37.104Z,50.73
2023-03-05T16:30:05.516Z,51.50
2023-03-05T16:32:32.784Z,52.19
2023-03-05T16:34:59.617Z,51.06
2023-03-05T16:37:26.547Z,51.71
2023-03-05T16:39:53.444Z,51.41
2023-03-05T16:42:20.246Z,51.49
2023-03-05T16:44:47.608Z,51.59
2023-03-05T16:47:14.569Z,52.55
2023-03-05T16:49:41.476Z,52.26
2023-03-05T16:52:18.195Z,51.89
2023-03-05T16:54:47.058Z,52.81
2023-03-05T16:57:15.248Z,52.40
2023-03-05T16:59:43.805Z,53.28
2023-03-05T17:02:13.331Z,52.54
2023-03-05T17:04:40.370Z,52.83
2023-03-05T17:07:07.683Z,52.83
2023-03-05T17:09:35.897Z,53.10
2023-03-05T17:12:02.803Z,58.62
2023-03-05T17:14:29.653Z,55.94
2023-03-05T17:16:59.025Z,56.75
2023-03-05T17:19:26.037Z,53.81
2023-03-05T17:21:53.050Z,54.16
2023-03-05T17:24:21.541Z,53.54
2023-03-05T17:26:50.268Z,54.94
2023-03-05T17:29:19.090Z,54.87
2023-03-05T17:31:46.975Z,55.41
2023-03-05T17:34:14.562Z,54.91
2023-03-05T17:36:41.626Z,56.20
2023-03-05T17:39:09.016Z,57.17
2023-03-05T17:41:35.912Z,58.83
2023-03-05T17:44:02.725Z,60.08
2023-03-05T17:46:29.684Z,59.57
2023-03-05T17:48:56.578Z,60.75
2023-03-05T17:51:23.372Z,62.34
2023-03-05T17:53:50.215Z,61.23
2023-03-05T17:56:17.473Z,61.55
2023-03-05T17:58:44.326Z,61.20
2023-03-05T18:01:11.771Z,60.55
2023-03-05T18:03:39.676Z,62.08
2023-03-05T18:06:06.836Z,61.42
2023-03-05T18:08:33.664Z,59.80
2023-03-05T18:11:00.712Z,77.62
2023-03-05T18:13:27.538Z,62.20
2023-03-05T18:15:57.528Z,62.78
2023-03-05T18:18:24.489Z,65.28
2023-03-05T18:20:51.396Z,63.55
2023-03-05T18:23:18.368Z,64.46
2023-03-05T18:25:45.332Z,63.06
2023-03-05T18:28:14.893Z,63.53
2023-03-05T18:30:43.198Z,61.15
2023-03-05T18:33:18.804Z,61.47
2023-03-05T18:35:46.555Z,61.00
2023-03-05T18:38:13.332Z,60.35
2023-03-05T18:40:40.805Z,61.09
2023-03-05T18:43:08.068Z,60.91
2023-03-05T18:45:34.878Z,61.49
2023-03-05T18:48:01.767Z,60.45
2023-03-05T18:50:29.269Z,60.88
2023-03-05T18:52:56.462Z,60.70
2023-03-05T18:55:27.139Z,59.86
2023-03-05T18:57:55.053Z,60.11
2023-03-05T19:00:28.029Z,60.55
2023-03-05T19:02:56.308Z,61.86
2023-03-05T19:05:25.696Z,63.78
2023-03-05T19:07:53.408Z,64.86
2023-03-05T19:10:22.683Z,65.48
2023-03-05T19:12:56.105Z,65.45
2023-03-05T19:15:23.317Z,65.63
2023-03-05T19:17:50.317Z,65.85
2023-03-05T19:20:18.419Z,67.01
2023-03-05T19:22:45.518Z,65.25
2023-03-05T19:25:13.200Z,66.18
2023-03-05T19:27:40.553Z,67.05
2023-03-05T19:30:13.029Z,66.50
2023-03-05T19:32:40.567Z,66.19
2023-03-05T19:35:07.746Z,67.49
2023-03-05T19:37:34.839Z,68.00
2023-03-05T19:40:01.655Z,67.57
2023-03-05T19:42:29.039Z,67.98
2023-03-05T19:44:57.798Z,67.74
2023-03-05T19:47:26.144Z,68.05
2023-03-05T19:49:53.129Z,68.23
2023-03-05T19:52:20.022Z,67.99
2023-03-05T19:54:47.430Z,67.20
2023-03-05T19:57:15.599Z,67.84
2023-03-05T19:59:44.209Z,68.73
2023-03-05T20:02:13.014Z,69.30
2023-03-05T20:04:40.049Z,69.66
2023-03-05T20:07:07.302Z,69.24
2023-03-05T20:09:34.187Z,70.12
2023-03-05T20:12:04.901Z,69.95
2023-03-05T20:14:31.773Z,71.78
2023-03-05T20:16:58.703Z,72.12
2023-03-05T20:19:25.878Z,71.87
2023-03-05T20:21:52.783Z,71.74
2023-03-05T20:24:20.452Z,71.31
2023-03-05T20:26:48.512Z,72.26
2023-03-05T20:29:18.083Z,72.13
2023-03-05T20:31:45.962Z,71.68
2023-03-05T20:34:15.885Z,70.59
2023-03-05T20:36:43.046Z,70.16
2023-03-05T20:39:10.038Z,70.14
2023-03-05T20:41:39.172Z,69.94
2023-03-05T20:44:08.025Z,69.65
2023-03-05T20:46:39.542Z,71.55
2023-03-05T20:49:25.164Z,70.22
2023-03-05T20:51:52.193Z,70.48
2023-03-05T20:54:19.224Z,69.72
2023-03-05T20:56:46.370Z,69.55
2023-03-05T20:59:13.209Z,69.65
2023-03-05T21:01:41.428Z,70.32
2023-03-05T21:04:09.235Z,70.85
2023-03-05T21:06:36.650Z,70.65
2023-03-05T21:09:04.801Z,70.33
2023-03-05T21:11:32.383Z,70.96
2023-03-05T21:13:59.664Z,70.91
2023-03-05T21:16:28.282Z,70.99
2023-03-05T21:18:56.469Z,70.04
2023-03-05T21:21:23.624Z,69.90
2023-03-05T21:23:50.765Z,69.68
2023-03-05T21:26:18.474Z,69.60
2023-03-05T21:28:45.938Z,69.77
2023-03-05T21:31:19.281Z,69.70
2023-03-05T21:33:47.173Z,69.47
2023-03-05T21:36:19.208Z,70.01
2023-03-05T21:38:50.006Z,69.96
2023-03-05T21:41:18.432Z,70.58
2023-03-05T21:43:46.037Z,71.98
2023-03-05T21:46:13.783Z,71.96
2023-03-05T21:48:41.107Z,71.99
2023-03-05T21:51:13.901Z,71.96
2023-03-05T21:53:40.749Z,71.94
2023-03-05T21:56:17.948Z,72.16
2023-03-05T21:58:44.974Z,73.18
2023-03-05T22:01:13.358Z,73.12
2023-03-05T22:03:40.371Z,74.23
2023-03-05T22:06:15.873Z,74.48
2023-03-05T22:08:43.165Z,74.94
2023-03-05T22:11:15.786Z,74.50
2023-03-05T22:13:43.013Z,75.00
2023-03-05T22:16:11.716Z,75.68
2023-03-05T22:18:38.879Z,75.81
2023-03-05T22:21:15.103Z,75.03
2023-03-05T22:23:41.945Z,76.59
2023-03-05T22:26:08.761Z,75.29
2023-03-05T22:28:36.708Z,75.37
2023-03-05T22:31:03.707Z,75.55
2023-03-05T22:33:31.770Z,76.28
2023-03-05T22:35:59.100Z,76.48
2023-03-05T22:38:26.327Z,75.86
2023-03-05T22:40:53.363Z,76.30
2023-03-05T22:43:21.192Z,75.60
2023-03-05T22:45:48.118Z,75.90
2023-03-05T22:48:15.030Z,76.65
2023-03-05T22:50:44.384Z,76.04
2023-03-05T22:53:12.717Z,76.17
2023-03-05T22:55:42.209Z,76.05
2023-03-05T22:58:09.339Z,76.07
2023-03-05T23:00:37.266Z,76.92
2023-03-05T23:03:06.377Z,75.76
2023-03-05T23:05:34.831Z,76.47
2023-03-05T23:08:01.877Z,75.63
2023-03-05T23:10:29.539Z,76.24
2023-03-05T23:12:58.704Z,76.44
2023-03-05T23:15:34.474Z,76.93
2023-03-05T23:18:02.166Z,77.55
2023-03-05T23:20:33.661Z,77.12
2023-03-05T23:23:02.298Z,74.88
2023-03-05T23:25:32.003Z,75.69
2023-03-05T23:28:00.361Z,75.08
2023-03-05T23:30:32.593Z,75.25
2023-03-05T23:33:02.743Z,75.44
2023-03-05T23:35:38.021Z,76.00
2023-03-05T23:38:12.591Z,75.62
2023-03-05T23:40:45.996Z,75.49
2023-03-05T23:43:13.505Z,75.66
2023-03-05T23:45:45.111Z,74.51
2023-03-05T23:48:12.174Z,75.02
2023-03-05T23:50:41.388Z,76.13
2023-03-05T23:53:09.878Z,75.45
2023-03-05T23:55:42.167Z,75.88
2023-03-05T23:58:09.565Z,76.51
